Terminal Aerodrome Forecast
Issued by NWS Pueblo, CO

Home | Current Version | Previous Version | Text Only | Print | Product List | Glossary On
Versions: 1 2 3 4 5 6 7 8 9 10 11 12 13 14 15 16 17 18 19
000
FTUS45 KPUB 181732
TAFALS
TAF
KALS 181732Z 1818/1918 14006KT P6SM SCT200
     FM182100 21012G22KT P6SM SCT090 SCT200
     FM190100 18008KT P6SM SCT080 BKN150
     FM190600 19006KT P6SM BKN100
     FM191200 VRB06KT P6SM VCSH SCT035 BKN080=

USA.gov is the U.S. government's official web portal to all federal, state and local government web resources and services.